Time;durP1;ratioP1;P1;durP2;ratioP2;P2;SDS_P1;SDS_P2;PMS_P1;PMS_P2;Temp;Humidity;BMP_temperature;BMP_pressure;BME280_temperature;BME280_humidity;BME280_pressure;Samples;Min_cycle;Max_cycle;Signal;HPM_P1;HPM_P2
2022/12/04 00:01:35;;;;;;;20.37;8.53;;;;;;;;;;4919752;29;20043;-73
2022/12/04 00:04:01;;;;;;;15.27;7.57;;;;;;;;;;4920335;29;20067;-73
2022/12/04 00:06:27;;;;;;;16.90;8.60;;;;;;;;;;4920086;29;20478;-73
2022/12/04 00:08:53;;;;;;;15.47;7.93;;;;;;;;;;4920265;29;20106;-73
2022/12/04 00:11:23;;;;;;;21.17;8.97;;;;;;;;;;4904459;29;20419;-73
2022/12/04 00:13:49;;;;;;;17.70;7.53;;;;;;;;;;4920202;29;20529;-73
2022/12/04 00:16:17;;;;;;;16.43;7.73;;;;;;;;;;4919884;29;20067;-73
2022/12/04 00:18:42;;;;;;;21.87;9.07;;;;;;;;;;4920197;29;20418;-72
2022/12/04 00:21:10;;;;;;;16.23;8.37;;;;;;;;;;4920236;29;20042;-72
2022/12/04 00:23:36;;;;;;;14.00;8.00;;;;;;;;;;4919848;29;20043;-74
2022/12/04 00:26:03;;;;;;;23.23;9.17;;;;;;;;;;4919750;29;20303;-73
2022/12/04 00:28:30;;;;;;;19.53;9.23;;;;;;;;;;4920162;29;20118;-73
2022/12/04 00:30:55;;;;;;;15.27;8.37;;;;;;;;;;4904099;29;20035;-73
2022/12/04 00:33:21;;;;;;;21.10;8.20;;;;;;;;;;4919627;29;20039;-74
2022/12/04 00:35:47;;;;;;;21.80;7.77;;;;;;;;;;4903745;29;20059;-73
2022/12/04 00:38:13;;;;;;;18.90;8.77;;;;;;;;;;4919637;29;20118;-72
2022/12/04 00:40:38;;;;;;;21.60;9.77;;;;;;;;;;4903932;29;20087;-73
2022/12/04 00:43:05;;;;;;;23.27;8.40;;;;;;;;;;4919415;29;20466;-73
2022/12/04 00:45:30;;;;;;;15.23;8.07;;;;;;;;;;4919491;29;20046;-72
2022/12/04 00:47:56;;;;;;;16.97;8.17;;;;;;;;;;4919517;29;20063;-73
2022/12/04 00:50:22;;;;;;;16.20;8.43;;;;;;;;;;4919183;29;20462;-73
2022/12/04 00:52:48;;;;;;;17.40;8.30;;;;;;;;;;4935307;29;20040;-73
2022/12/04 00:55:13;;;;;;;14.10;7.50;;;;;;;;;;4919653;29;20043;-73
2022/12/04 00:57:39;;;;;;;22.90;8.13;;;;;;;;;;4919472;29;20067;-73
2022/12/04 01:00:05;;;;;;;19.80;9.20;;;;;;;;;;4919294;29;20560;-74
2022/12/04 01:02:31;;;;;;;16.73;8.27;;;;;;;;;;4903422;29;20067;-73
2022/12/04 01:04:56;;;;;;;18.93;8.37;;;;;;;;;;4903563;29;20311;-73
2022/12/04 01:07:22;;;;;;;16.67;8.50;;;;;;;;;;4918854;29;20053;-73
2022/12/04 01:09:48;;;;;;;17.90;8.20;;;;;;;;;;4919234;29;20035;-73
2022/12/04 01:12:14;;;;;;;13.50;7.67;;;;;;;;;;4919283;29;20024;-74
2022/12/04 01:14:41;;;;;;;17.13;8.27;;;;;;;;;;4919042;29;20058;-73
2022/12/04 01:17:06;;;;;;;16.57;7.77;;;;;;;;;;4918989;29;20472;-73
2022/12/04 01:19:32;;;;;;;17.80;8.40;;;;;;;;;;4934692;29;20035;-73
2022/12/04 01:21:58;;;;;;;15.53;8.30;;;;;;;;;;4903393;29;20074;-73
2022/12/04 01:24:23;;;;;;;17.83;8.37;;;;;;;;;;4903311;29;20040;-73
2022/12/04 01:26:49;;;;;;;18.63;8.87;;;;;;;;;;4918798;29;20054;-73
2022/12/04 01:29:15;;;;;;;16.63;8.00;;;;;;;;;;4918943;29;20091;-73
2022/12/04 01:31:41;;;;;;;14.77;7.97;;;;;;;;;;4919022;29;20042;-73
2022/12/04 01:34:06;;;;;;;21.23;9.03;;;;;;;;;;4902709;29;20036;-74
2022/12/04 01:36:32;;;;;;;19.67;9.17;;;;;;;;;;4918596;29;20462;-73
2022/12/04 01:38:58;;;;;;;17.10;8.73;;;;;;;;;;4918580;29;20036;-73
2022/12/04 01:41:25;;;;;;;23.33;9.10;;;;;;;;;;4918592;29;20478;-73
2022/12/04 01:44:09;;;;;;;14.97;8.00;;;;;;;;;;4918568;29;20283;-73
2022/12/04 01:46:35;;;;;;;19.87;9.37;;;;;;;;;;4918527;29;20300;-73
2022/12/04 01:49:01;;;;;;;19.27;8.70;;;;;;;;;;4918554;29;20071;-73
2022/12/04 01:51:29;;;;;;;23.17;9.50;;;;;;;;;;4934376;29;20046;-73
2022/12/04 01:53:58;;;;;;;17.87;8.50;;;;;;;;;;4918461;29;20294;-73
2022/12/04 01:56:27;;;;;;;23.87;8.60;;;;;;;;;;4918578;29;20454;-73
2022/12/04 01:58:55;;;;;;;19.63;8.87;;;;;;;;;;4919728;29;20288;-73
2022/12/04 02:01:22;;;;;;;19.63;9.37;;;;;;;;;;4929823;29;20778;-73
2022/12/04 02:03:47;;;;;;;18.53;8.67;;;;;;;;;;4930072;29;20082;-73
2022/12/04 02:06:13;;;;;;;18.53;9.33;;;;;;;;;;4927295;29;20055;-73
2022/12/04 02:08:39;;;;;;;22.20;9.93;;;;;;;;;;4904855;29;20047;-73
2022/12/04 02:11:23;;;;;;;19.27;9.40;;;;;;;;;;4902569;29;20035;-74
2022/12/04 02:14:06;;;;;;;18.13;9.33;;;;;;;;;;4918315;29;20156;-72
2022/12/04 02:16:44;;;;;;;19.37;9.27;;;;;;;;;;4902524;29;20294;-73
2022/12/04 02:19:13;;;;;;;23.23;8.83;;;;;;;;;;4902608;29;20294;-73
2022/12/04 02:21:41;;;;;;;18.63;8.03;;;;;;;;;;4918708;29;20778;-74
2022/12/04 02:24:33;;;;;;;18.93;8.03;;;;;;;;;;4918853;29;20043;-73
2022/12/04 02:27:05;;;;;;;18.07;8.53;;;;;;;;;;4893339;29;20052;-73
2022/12/04 02:29:30;;;;;;;12.77;7.30;;;;;;;;;;4922196;29;20287;-73
2022/12/04 02:32:02;;;;;;;18.23;9.13;;;;;;;;;;4921752;29;20028;-72
2022/12/04 02:34:29;;;;;;;20.13;8.33;;;;;;;;;;4921913;29;20063;-73
2022/12/04 02:37:01;;;;;;;17.60;8.93;;;;;;;;;;4921901;29;20138;-74
2022/12/04 02:39:31;;;;;;;17.07;8.67;;;;;;;;;;4938001;29;20279;-73
2022/12/04 02:42:00;;;;;;;17.23;7.38;;;;;;;;;;4937671;29;20050;-73
2022/12/04 02:44:33;;;;;;;16.23;8.27;;;;;;;;;;4937754;29;20106;-73
2022/12/04 02:47:02;;;;;;;16.03;8.00;;;;;;;;;;4921801;29;20147;-73
2022/12/04 02:49:34;;;;;;;22.07;8.57;;;;;;;;;;4921504;29;20334;-73
2022/12/04 02:52:00;;;;;;;18.13;8.37;;;;;;;;;;4921542;29;20290;-73
2022/12/04 02:54:38;;;;;;;17.30;7.53;;;;;;;;;;4921668;29;20544;-73
2022/12/04 02:57:05;;;;;;;13.70;7.37;;;;;;;;;;4921443;29;20122;-73
2022/12/04 02:59:34;;;;;;;18.20;7.63;;;;;;;;;;4921543;29;20386;-73
2022/12/04 03:02:02;;;;;;;19.13;7.67;;;;;;;;;;4921545;29;20082;-73
2022/12/04 03:04:31;;;;;;;23.50;8.77;;;;;;;;;;4921166;29;20267;-73
2022/12/04 03:07:00;;;;;;;20.77;8.30;;;;;;;;;;4921315;29;20054;-74
2022/12/04 03:09:32;;;;;;;21.47;8.00;;;;;;;;;;4921330;29;20087;-73
2022/12/04 03:12:14;;;;;;;15.27;7.57;;;;;;;;;;4937294;29;20334;-73
2022/12/04 03:14:49;;;;;;;15.00;7.97;;;;;;;;;;4921177;29;20283;-73
2022/12/04 03:17:16;;;;;;;15.80;8.03;;;;;;;;;;4921192;29;20374;-73
2022/12/04 03:19:49;;;;;;;25.03;7.83;;;;;;;;;;4921158;29;20276;-72
2022/12/04 03:22:17;;;;;;;17.03;7.43;;;;;;;;;;4937004;29;20287;-72
2022/12/04 03:24:45;;;;;;;22.80;8.60;;;;;;;;;;4921131;29;20279;-73
2022/12/04 03:27:17;;;;;;;20.43;8.93;;;;;;;;;;4920938;29;20296;-74
2022/12/04 03:29:47;;;;;;;21.57;7.67;;;;;;;;;;4921207;29;20280;-73
2022/12/04 03:32:18;;;;;;;16.33;7.90;;;;;;;;;;4920895;29;20276;-73
2022/12/04 03:34:50;;;;;;;16.58;7.72;;;;;;;;;;4920889;29;20603;-73
2022/12/04 03:37:22;;;;;;;22.67;7.73;;;;;;;;;;4919758;29;20501;-73
2022/12/04 03:39:50;;;;;;;18.20;7.90;;;;;;;;;;4920778;29;20291;-73
2022/12/04 03:42:19;;;;;;;22.57;8.30;;;;;;;;;;4936429;29;20829;-73
2022/12/04 03:44:51;;;;;;;14.77;7.17;;;;;;;;;;4920816;29;20284;-73
2022/12/04 03:47:41;;;;;;;26.27;9.00;;;;;;;;;;4920770;29;20335;-73
2022/12/04 03:50:11;;;;;;;19.97;8.47;;;;;;;;;;4920566;29;20801;-74
2022/12/04 03:52:47;;;;;;;19.35;7.07;;;;;;;;;;4920594;29;20306;-73
2022/12/04 03:55:18;;;;;;;18.67;7.47;;;;;;;;;;4920425;29;20087;-73
2022/12/04 03:57:45;;;;;;;24.37;10.23;;;;;;;;;;4904720;29;20287;-74
2022/12/04 04:00:18;;;;;;;17.47;7.50;;;;;;;;;;4920450;29;20740;-73
2022/12/04 04:02:48;;;;;;;16.33;7.77;;;;;;;;;;4936593;29;20292;-73
2022/12/04 04:05:16;;;;;;;15.95;7.40;;;;;;;;;;4936248;29;20287;-74
2022/12/04 04:07:47;;;;;;;16.77;7.83;;;;;;;;;;4904485;29;20047;-73
2022/12/04 04:10:13;;;;;;;;;;;;;;;;;;4920649;29;20663;-73
2022/12/04 04:12:43;;;;;;;17.17;7.07;;;;;;;;;;4920179;29;19942;-74
2022/12/04 04:26:37;;;;;;;17.03;7.03;;;;;;;;;;4919881;29;20366;-73
2022/12/04 04:29:02;;;;;;;19.97;7.83;;;;;;;;;;4935805;29;20280;-73
2022/12/04 04:31:32;;;;;;;23.27;9.03;;;;;;;;;;4919927;29;20342;-73
2022/12/04 04:34:04;;;;;;;25.73;8.18;;;;;;;;;;4919717;29;20162;-73
2022/12/04 04:36:35;;;;;;;20.73;9.13;;;;;;;;;;4935946;29;20178;-73
2022/12/04 04:39:05;;;;;;;19.40;6.93;;;;;;;;;;4919647;29;20342;-72
2022/12/04 04:41:57;;;;;;;25.67;10.10;;;;;;;;;;4919725;29;20292;-73
2022/12/04 04:44:41;;;;;;;17.10;8.57;;;;;;;;;;4910664;29;20330;-73
2022/12/04 04:47:11;;;;;;;19.90;7.77;;;;;;;;;;4919472;29;20312;-73
2022/12/04 04:49:38;;;;;;;19.27;7.90;;;;;;;;;;4919411;29;20623;-73
2022/12/04 04:52:04;;;;;;;19.60;8.17;;;;;;;;;;4903822;29;20666;-73
2022/12/04 04:54:30;;;;;;;25.73;8.60;;;;;;;;;;4919320;29;20346;-73
2022/12/04 04:56:57;;;;;;;31.07;9.73;;;;;;;;;;4919732;29;20315;-74
2022/12/04 04:59:23;;;;;;;26.70;9.90;;;;;;;;;;4919463;29;20291;-73
2022/12/04 05:01:49;;;;;;;22.77;9.13;;;;;;;;;;4903566;29;20358;-73
2022/12/04 05:04:15;;;;;;;20.77;8.80;;;;;;;;;;4919310;29;20031;-73
2022/12/04 05:06:41;;;;;;;17.83;8.63;;;;;;;;;;4903476;29;20043;-73
2022/12/04 05:09:07;;;;;;;20.63;8.53;;;;;;;;;;4919353;29;20138;-73
2022/12/04 05:11:33;;;;;;;15.87;7.30;;;;;;;;;;4919203;29;20825;-73
2022/12/04 05:13:59;;;;;;;20.13;8.10;;;;;;;;;;4919039;29;20366;-73
2022/12/04 05:16:25;;;;;;;16.37;7.30;;;;;;;;;;4903562;29;20377;-73
2022/12/04 05:21:35;;;;;;;19.80;8.50;;;;;;;;;;4918760;29;20290;-74
2022/12/04 05:24:01;;;;;;;16.27;8.23;;;;;;;;;;4918789;29;20276;-73
2022/12/04 05:26:26;;;;;;;16.67;7.77;;;;;;;;;;4919160;29;20405;-73
2022/12/04 05:28:52;;;;;;;17.23;8.03;;;;;;;;;;4903079;29;20043;-73
2022/12/04 05:31:18;;;;;;;16.47;7.37;;;;;;;;;;4902990;29;20046;-73
2022/12/04 05:33:43;;;;;;;16.53;7.93;;;;;;;;;;4918721;29;20134;-73
2022/12/04 05:36:09;;;;;;;17.50;7.73;;;;;;;;;;4918537;29;20063;-73
2022/12/04 05:38:35;;;;;;;20.03;7.43;;;;;;;;;;4918663;29;20035;-72
2022/12/04 05:41:02;;;;;;;21.20;8.07;;;;;;;;;;4918605;29;20382;-72
2022/12/04 05:43:28;;;;;;;17.67;8.00;;;;;;;;;;4918919;29;20271;-73
2022/12/04 05:45:54;;;;;;;17.20;8.23;;;;;;;;;;4918710;29;20326;-73
2022/12/04 05:48:19;;;;;;;19.80;8.53;;;;;;;;;;4918591;29;20311;-73
2022/12/04 05:50:45;;;;;;;14.30;7.17;;;;;;;;;;4918613;29;20485;-72
2022/12/04 05:53:11;;;;;;;19.00;8.07;;;;;;;;;;4918489;29;20031;-74
2022/12/04 05:55:36;;;;;;;23.87;10.57;;;;;;;;;;4918540;29;20044;-73
2022/12/04 05:58:02;;;;;;;19.87;7.73;;;;;;;;;;4902744;29;20039;-73
2022/12/04 06:00:28;;;;;;;23.30;8.27;;;;;;;;;;4934112;29;20043;-73
2022/12/04 06:02:54;;;;;;;16.33;6.83;;;;;;;;;;4902625;29;20342;-73
2022/12/04 06:05:20;;;;;;;20.17;7.70;;;;;;;;;;4918463;29;20093;-73
2022/12/04 06:07:45;;;;;;;19.00;7.50;;;;;;;;;;4918417;29;20474;-73
2022/12/04 06:10:11;;;;;;;14.00;7.50;;;;;;;;;;4918449;29;20105;-72
2022/12/04 06:12:38;;;;;;;17.53;7.07;;;;;;;;;;4918630;29;20051;-73
2022/12/04 06:15:04;;;;;;;20.00;7.33;;;;;;;;;;4902607;29;20276;-72
2022/12/04 06:17:29;;;;;;;13.50;7.07;;;;;;;;;;4902657;29;20040;-72
2022/12/04 06:19:55;;;;;;;13.57;7.00;;;;;;;;;;4918020;29;20622;-73
2022/12/04 06:22:21;;;;;;;16.50;8.03;;;;;;;;;;4918200;29;20087;-72
2022/12/04 06:24:46;;;;;;;20.17;8.50;;;;;;;;;;4902430;29;20035;-73
2022/12/04 06:27:12;;;;;;;17.27;7.80;;;;;;;;;;4918055;29;20067;-72
2022/12/04 06:29:38;;;;;;;19.03;7.60;;;;;;;;;;4902669;29;20075;-72
2022/12/04 06:32:04;;;;;;;17.23;6.40;;;;;;;;;;4903665;29;20035;-72
2022/12/04 06:34:29;;;;;;;12.57;6.43;;;;;;;;;;4930299;29;20071;-73
2022/12/04 06:36:55;;;;;;;20.53;7.73;;;;;;;;;;4931983;29;20055;-73
2022/12/04 06:39:21;;;;;;;13.17;6.70;;;;;;;;;;4913105;29;20501;-73
2022/12/04 06:41:46;;;;;;;10.33;5.87;;;;;;;;;;4909070;29;20124;-73
2022/12/04 06:44:12;;;;;;;15.67;6.63;;;;;;;;;;4917969;29;20040;-74
2022/12/04 06:46:38;;;;;;;15.67;6.53;;;;;;;;;;4918132;29;20047;-74
2022/12/04 06:49:04;;;;;;;13.77;6.80;;;;;;;;;;4917982;29;20065;-72
2022/12/04 06:51:31;;;;;;;13.07;6.17;;;;;;;;;;4918158;29;20067;-73
2022/12/04 06:53:57;;;;;;;12.77;6.10;;;;;;;;;;4917694;29;20411;-74
2022/12/04 06:56:24;;;;;;;15.17;7.17;;;;;;;;;;4917622;29;20098;-74
2022/12/04 06:58:51;;;;;;;16.43;6.83;;;;;;;;;;4902128;29;20058;-73
2022/12/04 07:01:18;;;;;;;17.70;7.17;;;;;;;;;;4933676;29;20036;-74
2022/12/04 07:03:44;;;;;;;13.93;7.10;;;;;;;;;;4917867;29;20028;-73
2022/12/04 07:06:10;;;;;;;18.00;8.07;;;;;;;;;;4917801;29;20075;-74
2022/12/04 07:08:36;;;;;;;21.97;6.77;;;;;;;;;;4902087;29;20474;-73
2022/12/04 07:11:01;;;;;;;15.63;7.40;;;;;;;;;;4918224;29;20024;-73
2022/12/04 07:13:27;;;;;;;19.07;8.20;;;;;;;;;;4921023;29;20134;-73
2022/12/04 07:15:54;;;;;;;18.97;7.57;;;;;;;;;;4921020;29;20046;-73
2022/12/04 07:18:19;;;;;;;15.93;7.20;;;;;;;;;;4905494;29;20027;-73
2022/12/04 07:20:46;;;;;;;16.73;6.77;;;;;;;;;;4937154;29;20371;-73
2022/12/04 07:23:11;;;;;;;14.73;6.63;;;;;;;;;;4921121;29;20471;-73
2022/12/04 07:25:40;;;;;;;14.67;7.30;;;;;;;;;;4905451;29;20046;-72
2022/12/04 07:28:06;;;;;;;13.53;6.97;;;;;;;;;;4920941;29;20040;-72
2022/12/04 07:30:32;;;;;;;19.67;7.43;;;;;;;;;;4921342;29;20036;-73
2022/12/04 07:32:57;;;;;;;13.47;6.50;;;;;;;;;;4920900;29;20126;-73
2022/12/04 07:35:23;;;;;;;17.83;7.17;;;;;;;;;;4920646;29;20056;-73
2022/12/04 07:37:49;;;;;;;23.53;7.63;;;;;;;;;;4920795;29;20040;-73
2022/12/04 07:40:14;;;;;;;17.93;7.60;;;;;;;;;;4920764;29;20043;-73
2022/12/04 07:42:41;;;;;;;19.80;7.90;;;;;;;;;;4920743;29;20481;-73
2022/12/04 07:45:07;;;;;;;16.10;7.13;;;;;;;;;;4905637;29;20051;-74
2022/12/04 07:47:33;;;;;;;19.43;7.00;;;;;;;;;;4936772;29;20154;-73
2022/12/04 07:49:59;;;;;;;17.03;7.80;;;;;;;;;;4920680;29;20043;-72
2022/12/04 07:52:28;;;;;;;16.67;7.00;;;;;;;;;;4905615;29;20126;-74
2022/12/04 07:54:54;;;;;;;14.83;6.67;;;;;;;;;;4920551;29;20106;-74
2022/12/04 07:57:20;;;;;;;13.60;6.50;;;;;;;;;;4920808;29;20044;-74
2022/12/04 07:59:46;;;;;;;13.47;5.83;;;;;;;;;;4920595;29;20035;-74
2022/12/04 08:02:12;;;;;;;15.47;7.37;;;;;;;;;;4904825;29;20036;-74
2022/12/04 08:04:38;;;;;;;10.97;6.33;;;;;;;;;;4920489;29;20035;-73
2022/12/04 08:07:04;;;;;;;17.30;6.30;;;;;;;;;;4920375;29;20114;-74
2022/12/04 08:09:29;;;;;;;13.37;6.33;;;;;;;;;;4920417;29;20492;-74
2022/12/04 08:11:55;;;;;;;11.97;7.07;;;;;;;;;;4920149;29;20035;-74
2022/12/04 08:14:21;;;;;;;16.27;6.57;;;;;;;;;;4920132;29;20036;-73
2022/12/04 08:16:48;;;;;;;15.43;6.97;;;;;;;;;;4920005;29;20086;-74
2022/12/04 08:19:14;;;;;;;19.33;7.00;;;;;;;;;;4920226;29;20121;-75
2022/12/04 08:21:39;;;;;;;17.83;7.80;;;;;;;;;;4919827;29;20067;-72
2022/12/04 08:24:05;;;;;;;18.65;8.07;;;;;;;;;;4920306;29;20039;-74
2022/12/04 08:26:32;;;;;;;14.32;6.97;;;;;;;;;;4919809;29;20367;-74
2022/12/04 08:29:00;;;;;;;14.20;7.60;;;;;;;;;;4919929;29;20031;-74
2022/12/04 08:31:27;;;;;;;14.38;6.90;;;;;;;;;;4919952;29;20041;-75
2022/12/04 08:33:54;;;;;;;14.43;6.68;;;;;;;;;;4919888;29;20378;-75
2022/12/04 08:36:21;;;;;;;11.45;6.55;;;;;;;;;;4919496;29;20142;-74
2022/12/04 08:38:47;;;;;;;10.63;7.03;;;;;;;;;;4919972;29;20044;-75
2022/12/04 08:41:16;;;;;;;14.38;6.28;;;;;;;;;;4919718;29;20031;-75
2022/12/04 08:43:42;;;;;;;11.75;6.47;;;;;;;;;;4919646;29;20705;-74
2022/12/04 08:46:09;;;;;;;15.05;6.47;;;;;;;;;;4919866;29;20040;-76
2022/12/04 08:48:35;;;;;;;14.40;6.30;;;;;;;;;;4919580;29;20044;-75
2022/12/04 08:51:03;;;;;;;13.23;6.47;;;;;;;;;;4919522;29;20047;-75
2022/12/04 08:53:29;;;;;;;16.23;6.15;;;;;;;;;;4919409;29;20039;-75
2022/12/04 08:55:55;;;;;;;11.63;5.72;;;;;;;;;;4919564;29;20043;-75
2022/12/04 08:58:21;;;;;;;13.60;6.15;;;;;;;;;;4919448;29;20430;-75
2022/12/04 09:00:47;;;;;;;13.13;6.40;;;;;;;;;;4903853;29;20032;-75
2022/12/04 09:03:18;;;;;;;11.05;6.38;;;;;;;;;;4903767;29;20139;-74
2022/12/04 09:05:47;;;;;;;15.02;6.85;;;;;;;;;;4919205;29;20681;-74
2022/12/04 09:08:14;;;;;;;16.02;7.38;;;;;;;;;;4919060;29;20057;-75
2022/12/04 09:10:40;;;;;;;16.33;7.78;;;;;;;;;;4904000;29;20099;-73
2022/12/04 09:13:06;;;;;;;15.40;8.05;;;;;;;;;;4918917;29;20035;-74
2022/12/04 09:15:31;;;;;;;15.23;7.68;;;;;;;;;;4919030;29;20147;-74
2022/12/04 09:17:58;;;;;;;16.55;7.13;;;;;;;;;;4919202;29;20086;-77
2022/12/04 09:20:24;;;;;;;14.90;6.55;;;;;;;;;;4918987;29;20078;-76
2022/12/04 09:22:50;;;;;;;12.68;6.75;;;;;;;;;;4919019;29;20396;-76
2022/12/04 09:25:16;;;;;;;13.95;6.95;;;;;;;;;;4935194;29;20043;-75
2022/12/04 09:27:42;;;;;;;13.70;7.45;;;;;;;;;;4903340;29;20082;-75
2022/12/04 09:30:09;;;;;;;10.77;6.10;;;;;;;;;;4918973;29;20035;-76
2022/12/04 09:32:35;;;;;;;14.98;6.85;;;;;;;;;;4934684;29;20039;-75
2022/12/04 09:35:01;;;;;;;11.15;5.93;;;;;;;;;;4917977;29;20496;-75
2022/12/04 09:37:29;;;;;;;17.05;7.47;;;;;;;;;;4918861;29;20035;-75
2022/12/04 09:39:54;;;;;;;15.30;6.28;;;;;;;;;;4918726;29;20614;-74
2022/12/04 09:42:29;;;;;;;14.65;7.32;;;;;;;;;;4918821;29;20046;-74
2022/12/04 09:44:55;;;;;;;12.63;6.78;;;;;;;;;;4918636;29;20118;-74
2022/12/04 09:47:22;;;;;;;12.85;6.20;;;;;;;;;;4918403;29;20517;-75
2022/12/04 09:49:57;;;;;;;12.85;5.95;;;;;;;;;;4934432;29;20044;-75
2022/12/04 09:52:30;;;;;;;9.13;6.10;;;;;;;;;;4934333;29;20066;-75
2022/12/04 09:54:57;;;;;;;14.52;6.47;;;;;;;;;;4918591;29;20514;-75
2022/12/04 09:57:27;;;;;;;9.35;6.05;;;;;;;;;;4918443;29;20038;-75
2022/12/04 09:59:52;;;;;;;9.25;5.28;;;;;;;;;;4918301;29;20098;-75
2022/12/04 10:02:27;;;;;;;13.10;5.80;;;;;;;;;;4918329;29;20040;-74
2022/12/04 10:04:54;;;;;;;11.02;5.80;;;;;;;;;;4918471;29;20118;-74
2022/12/04 10:07:46;;;;;;;9.18;5.53;;;;;;;;;;4918219;29;20481;-74
2022/12/04 10:10:18;;;;;;;10.80;5.78;;;;;;;;;;4914823;29;20044;-75
2022/12/04 10:12:43;;;;;;;11.90;6.18;;;;;;;;;;4918538;29;20130;-75
2022/12/04 10:15:10;;;;;;;17.42;9.02;;;;;;;;;;4918216;29;20143;-75
2022/12/04 10:17:51;;;;;;;15.77;9.43;;;;;;;;;;4918145;29;20130;-74
2022/12/04 10:20:36;;;;;;;22.75;9.25;;;;;;;;;;4918241;29;20489;-74
2022/12/04 10:23:04;;;;;;;15.23;8.38;;;;;;;;;;4918158;29;20049;-74
2022/12/04 10:25:33;;;;;;;14.38;8.65;;;;;;;;;;4918248;29;20138;-74
2022/12/04 10:28:05;;;;;;;15.10;6.93;;;;;;;;;;4918135;29;20051;-74
2022/12/04 10:30:32;;;;;;;15.50;7.25;;;;;;;;;;4918221;29;20039;-74
2022/12/04 10:33:17;;;;;;;12.90;6.20;;;;;;;;;;4918120;29;20061;-75
2022/12/04 10:35:44;;;;;;;13.68;6.50;;;;;;;;;;4918487;29;20059;-75
2022/12/04 10:38:24;;;;;;;11.68;6.00;;;;;;;;;;4918178;29;20065;-74
2022/12/04 10:40:52;;;;;;;14.18;6.30;;;;;;;;;;4917911;29;20065;-74
2022/12/04 10:43:18;;;;;;;19.08;6.28;;;;;;;;;;4918094;29;20047;-74
2022/12/04 10:45:43;;;;;;;11.75;5.57;;;;;;;;;;4919878;29;20462;-75
2022/12/04 10:48:17;;;;;;;11.35;5.55;;;;;;;;;;4921515;29;20402;-74
2022/12/04 10:50:43;;;;;;;12.77;6.40;;;;;;;;;;4921850;29;20067;-74
2022/12/04 10:53:11;;;;;;;12.40;5.53;;;;;;;;;;4921517;29;20074;-74
2022/12/04 10:55:38;;;;;;;10.73;5.67;;;;;;;;;;4921501;29;20434;-74
2022/12/04 10:58:14;;;;;;;14.73;5.97;;;;;;;;;;4921551;29;20454;-74
2022/12/04 11:00:40;;;;;;;12.40;5.87;;;;;;;;;;4921555;29;20481;-74
2022/12/04 11:03:20;;;;;;;11.60;5.23;;;;;;;;;;4921507;29;20039;-74
2022/12/04 11:05:46;;;;;;;;;;;;;;;;;;4922578;29;20463;-74
2022/12/04 11:08:22;;;;;;;10.30;6.00;;;;;;;;;;4926074;29;19947;-74
2022/12/04 11:10:55;;;;;;;12.77;6.03;;;;;;;;;;4939755;29;20128;-74
2022/12/04 11:13:22;;;;;;;10.87;5.90;;;;;;;;;;4938655;29;20059;-73
2022/12/04 11:15:52;;;;;;;10.90;5.67;;;;;;;;;;4935784;29;20028;-74
2022/12/04 11:18:23;;;;;;;10.10;4.90;;;;;;;;;;4921556;29;20050;-74
2022/12/04 11:20:48;;;;;;;;;;;;;;;;;;4921982;29;20241;-74
2022/12/04 11:23:15;;;;;;;15.37;5.93;;;;;;;;;;4921316;29;19950;-74
2022/12/04 11:25:46;;;;;;;11.80;5.60;;;;;;;;;;4921179;29;20409;-75
2022/12/04 11:28:16;;;;;;;9.45;5.80;;;;;;;;;;4920934;29;20047;-74
2022/12/04 11:30:46;;;;;;;13.85;5.50;;;;;;;;;;4920978;29;20039;-75
2022/12/04 11:33:28;;;;;;;9.77;5.20;;;;;;;;;;4921066;29;20156;-74
2022/12/04 11:35:55;;;;;;;14.40;5.43;;;;;;;;;;4920797;29;20150;-74
2022/12/04 11:38:23;;;;;;;12.17;5.40;;;;;;;;;;4920625;29;20036;-73
2022/12/04 11:40:51;;;;;;;9.70;5.20;;;;;;;;;;4937076;29;20514;-74
2022/12/04 11:43:18;;;;;;;11.63;5.07;;;;;;;;;;4920989;29;20046;-74
2022/12/04 11:45:53;;;;;;;10.97;5.70;;;;;;;;;;4920787;29;20044;-74
2022/12/04 11:48:20;;;;;;;10.77;4.87;;;;;;;;;;4905374;29;20050;-74
2022/12/04 11:50:49;;;;;;;11.27;5.57;;;;;;;;;;4904922;29;20028;-74
2022/12/04 11:53:38;;;;;;;9.63;5.13;;;;;;;;;;4920578;29;20047;-74
2022/12/04 11:56:20;;;;;;;12.23;4.67;;;;;;;;;;4935867;29;20044;-74
2022/12/04 11:58:51;;;;;;;11.77;4.67;;;;;;;;;;4919998;29;20102;-74
2022/12/04 12:01:27;;;;;;;11.70;5.17;;;;;;;;;;4920696;29;20103;-74
2022/12/04 12:04:06;;;;;;;9.60;4.37;;;;;;;;;;4936750;29;20481;-73
2022/12/04 12:06:44;;;;;;;16.63;5.43;;;;;;;;;;4920262;29;20036;-74
2022/12/04 12:09:10;;;;;;;10.67;4.77;;;;;;;;;;4920333;29;20039;-74
2022/12/04 12:11:39;;;;;;;10.93;5.57;;;;;;;;;;4904600;29;20036;-74
2022/12/04 12:14:05;;;;;;;16.03;5.47;;;;;;;;;;4920160;29;20051;-74
2022/12/04 12:16:46;;;;;;;13.30;5.10;;;;;;;;;;4920030;29;20090;-74
2022/12/04 12:19:18;;;;;;;9.17;4.53;;;;;;;;;;4904376;29;20035;-73
2022/12/04 12:22:17;;;;;;;13.70;5.20;;;;;;;;;;4920107;29;20039;-73
2022/12/04 12:24:59;;;;;;;16.60;7.53;;;;;;;;;;4863372;29;20130;-74
2022/12/04 12:27:25;;;;;;;16.70;6.80;;;;;;;;;;4919923;29;20386;-74
2022/12/04 12:29:54;;;;;;;13.53;5.70;;;;;;;;;;4919930;29;20047;-73
2022/12/04 12:32:20;;;;;;;13.37;5.87;;;;;;;;;;4920065;29;20035;-73
2022/12/04 12:34:46;;;;;;;16.00;6.10;;;;;;;;;;4919549;29;20545;-73
2022/12/04 12:37:20;;;;;;;15.00;7.27;;;;;;;;;;4919715;29;20067;-74
2022/12/04 12:39:54;;;;;;;19.07;7.20;;;;;;;;;;4936004;29;20040;-73
2022/12/04 12:42:24;;;;;;;16.93;6.37;;;;;;;;;;4919950;29;20062;-73
2022/12/04 12:44:49;;;;;;;14.83;6.27;;;;;;;;;;4919993;29;20471;-73
2022/12/04 12:47:19;;;;;;;16.17;5.80;;;;;;;;;;4919611;29;20079;-73
2022/12/04 12:50:11;;;;;;;15.50;4.85;;;;;;;;;;4919744;29;20036;-73
2022/12/04 12:52:42;;;;;;;14.83;5.50;;;;;;;;;;4890811;29;20058;-73
2022/12/04 12:55:27;;;;;;;11.20;4.87;;;;;;;;;;4919494;29;20036;-74
2022/12/04 12:57:53;;;;;;;15.13;4.83;;;;;;;;;;4935321;29;20031;-73
2022/12/04 13:00:20;;;;;;;8.37;4.57;;;;;;;;;;4935262;29;20048;-73
2022/12/04 13:02:48;;;;;;;13.50;5.37;;;;;;;;;;4919216;29;20160;-73
2022/12/04 13:05:15;;;;;;;12.40;5.37;;;;;;;;;;4919563;29;20110;-74
2022/12/04 13:07:44;;;;;;;13.70;5.47;;;;;;;;;;4919097;29;20048;-73
2022/12/04 13:10:13;;;;;;;11.73;4.73;;;;;;;;;;4919218;29;20430;-73
2022/12/04 13:12:48;;;;;;;11.70;4.67;;;;;;;;;;4919159;29;20040;-73
2022/12/04 13:15:15;;;;;;;14.67;4.83;;;;;;;;;;4919055;29;20061;-73
2022/12/04 13:17:43;;;;;;;13.07;4.60;;;;;;;;;;4919410;29;20493;-73
2022/12/04 13:20:15;;;;;;;10.37;4.67;;;;;;;;;;4919028;29;20032;-73
2022/12/04 13:22:41;;;;;;;6.77;3.57;;;;;;;;;;4919021;29;20441;-73
2022/12/04 13:25:26;;;;;;;9.70;4.20;;;;;;;;;;4918657;29;20035;-73
2022/12/04 13:27:58;;;;;;;9.43;4.90;;;;;;;;;;4919103;29;20118;-73
2022/12/04 13:30:43;;;;;;;11.63;5.50;;;;;;;;;;4919047;29;20389;-73
2022/12/04 13:33:18;;;;;;;16.13;5.37;;;;;;;;;;4918982;29;20071;-73
2022/12/04 13:35:56;;;;;;;14.23;5.07;;;;;;;;;;4918658;29;20051;-73
2022/12/04 13:38:35;;;;;;;8.63;5.10;;;;;;;;;;4918931;29;20043;-73
2022/12/04 13:41:03;;;;;;;13.57;5.77;;;;;;;;;;4918588;29;20139;-73
2022/12/04 13:43:36;;;;;;;12.70;5.10;;;;;;;;;;4918687;29;20071;-73
2022/12/04 13:46:06;;;;;;;10.73;5.53;;;;;;;;;;4934260;29;20477;-72
2022/12/04 13:48:35;;;;;;;9.13;4.88;;;;;;;;;;4918551;29;20036;-72
2022/12/04 13:51:02;;;;;;;;;;;;;;;;;;4934720;29;20047;-73
2022/12/04 13:53:36;;;;;;;13.40;5.10;;;;;;;;;;4918335;29;19915;-72
2022/12/04 13:56:03;;;;;;;12.43;4.70;;;;;;;;;;4918379;29;20043;-72
2022/12/04 13:58:30;;;;;;;11.17;5.80;;;;;;;;;;4918397;29;20042;-73
2022/12/04 14:01:11;;;;;;;13.30;6.03;;;;;;;;;;4918761;29;20503;-73
2022/12/04 14:03:54;;;;;;;11.83;5.40;;;;;;;;;;4934236;29;20039;-73
2022/12/04 14:06:23;;;;;;;14.80;5.90;;;;;;;;;;4918171;29;20040;-72
2022/12/04 14:08:54;;;;;;;10.43;5.50;;;;;;;;;;4934047;29;20078;-73
2022/12/04 14:11:22;;;;;;;12.83;5.37;;;;;;;;;;4917801;29;20050;-73
2022/12/04 14:13:49;;;;;;;10.53;4.97;;;;;;;;;;4918218;29;20043;-73
2022/12/04 14:16:21;;;;;;;12.40;6.13;;;;;;;;;;4918101;29;20039;-73
2022/12/04 14:18:48;;;;;;;8.93;4.80;;;;;;;;;;4917952;29;20051;-73
2022/12/04 14:21:14;;;;;;;7.97;5.23;;;;;;;;;;4917452;29;20043;-73
2022/12/04 14:23:43;;;;;;;9.07;4.50;;;;;;;;;;4917950;29;20066;-74
2022/12/04 14:26:32;;;;;;;13.63;6.17;;;;;;;;;;4917835;29;20035;-73
2022/12/04 14:29:06;;;;;;;12.67;4.53;;;;;;;;;;4933976;29;20077;-72
2022/12/04 14:31:37;;;;;;;13.33;5.40;;;;;;;;;;4918004;29;20482;-73
2022/12/04 14:34:13;;;;;;;7.77;4.10;;;;;;;;;;4933758;29;20051;-72
2022/12/04 14:36:44;;;;;;;7.80;4.53;;;;;;;;;;4933792;29;20446;-72
2022/12/04 14:39:25;;;;;;;11.87;4.93;;;;;;;;;;4918011;29;20606;-72
2022/12/04 14:41:52;;;;;;;12.40;5.20;;;;;;;;;;4918134;29;20043;-73
2022/12/04 14:44:27;;;;;;;10.53;5.83;;;;;;;;;;4917990;29;20036;-73
2022/12/04 14:46:56;;;;;;;10.73;5.03;;;;;;;;;;4933929;29;20040;-73
2022/12/04 14:49:54;;;;;;;11.40;5.70;;;;;;;;;;4917897;29;20039;-73
2022/12/04 14:52:26;;;;;;;9.83;4.40;;;;;;;;;;4861653;29;20079;-73
2022/12/04 14:55:06;;;;;;;16.90;4.57;;;;;;;;;;4917686;29;20058;-73
2022/12/04 14:57:38;;;;;;;13.88;4.72;;;;;;;;;;4918031;29;20098;-72